sensor_id;sensor_type;location;lat;lon;timestamp;pressure;altitude;pressure_sealevel;temperature;humidity
81352;BME280;70809;52.184;13.422;2024-01-16T00:00:55;99698.69;;;-0.95;100.00
81352;BME280;70809;52.184;13.422;2024-01-16T00:01:56;99698.72;;;-0.74;99.96
81352;BME280;70809;52.184;13.422;2024-01-16T00:02:58;99686.69;;;-0.51;99.77
81352;BME280;70809;52.184;13.422;2024-01-16T00:03:59;99688.84;;;-0.83;99.41
81352;BME280;70809;52.184;13.422;2024-01-16T00:05:01;99689.19;;;-0.95;100.00
81352;BME280;70809;52.184;13.422;2024-01-16T00:06:03;99692.00;;;-0.90;100.00
81352;BME280;70809;52.184;13.422;2024-01-16T00:07:06;99696.44;;;-0.67;100.00
81352;BME280;70809;52.184;13.422;2024-01-16T00:08:08;99690.84;;;-0.97;100.00
81352;BME280;70809;52.184;13.422;2024-01-16T00:09:09;99694.06;;;-1.02;100.00
81352;BME280;70809;52.184;13.422;2024-01-16T00:10:11;99688.84;;;-1.23;100.00
81352;BME280;70809;52.184;13.422;2024-01-16T00:11:12;99689.38;;;-1.11;100.00
81352;BME280;70809;52.184;13.422;2024-01-16T00:12:14;99692.56;;;-0.97;100.00
81352;BME280;70809;52.184;13.422;2024-01-16T00:13:15;99688.56;;;-0.89;100.00
81352;BME280;70809;52.184;13.422;2024-01-16T00:14:17;99695.31;;;-0.93;100.00
81352;BME280;70809;52.184;13.422;2024-01-16T00:15:18;99699.31;;;-1.01;100.00
81352;BME280;70809;52.184;13.422;2024-01-16T00:16:20;99702.84;;;-0.99;100.00
81352;BME280;70809;52.184;13.422;2024-01-16T00:17:22;99691.84;;;-1.14;100.00
81352;BME280;70809;52.184;13.422;2024-01-16T00:18:23;99705.06;;;-0.87;100.00
81352;BME280;70809;52.184;13.422;2024-01-16T00:19:25;99704.75;;;-0.95;100.00
81352;BME280;70809;52.184;13.422;2024-01-16T00:20:26;99706.16;;;-1.03;100.00
81352;BME280;70809;52.184;13.422;2024-01-16T00:21:28;99701.06;;;-1.00;100.00
81352;BME280;70809;52.184;13.422;2024-01-16T00:22:31;99701.03;;;-1.01;100.00
81352;BME280;70809;52.184;13.422;2024-01-16T00:23:32;99709.47;;;-1.05;100.00
81352;BME280;70809;52.184;13.422;2024-01-16T00:24:34;99707.44;;;-1.13;100.00
81352;BME280;70809;52.184;13.422;2024-01-16T00:25:36;99706.19;;;-1.01;100.00
81352;BME280;70809;52.184;13.422;2024-01-16T00:26:38;99709.00;;;-0.97;100.00
81352;BME280;70809;52.184;13.422;2024-01-16T00:27:39;99717.19;;;-0.86;100.00
81352;BME280;70809;52.184;13.422;2024-01-16T00:28:42;99706.06;;;-1.04;100.00
81352;BME280;70809;52.184;13.422;2024-01-16T00:29:44;99710.66;;;-1.18;100.00
81352;BME280;70809;52.184;13.422;2024-01-16T00:30:46;99707.81;;;-0.84;100.00
81352;BME280;70809;52.184;13.422;2024-01-16T00:31:47;99714.50;;;-0.89;100.00
81352;BME280;70809;52.184;13.422;2024-01-16T00:32:49;99715.59;;;-0.84;100.00
81352;BME280;70809;52.184;13.422;2024-01-16T00:33:51;99709.63;;;-0.82;100.00
81352;BME280;70809;52.184;13.422;2024-01-16T00:34:52;99697.78;;;-0.75;100.00
81352;BME280;70809;52.184;13.422;2024-01-16T00:35:54;99712.69;;;-0.92;100.00
81352;BME280;70809;52.184;13.422;2024-01-16T00:36:56;99708.19;;;-1.15;100.00
81352;BME280;70809;52.184;13.422;2024-01-16T00:37:59;99714.81;;;-1.02;100.00
81352;BME280;70809;52.184;13.422;2024-01-16T00:39:00;99719.31;;;-0.77;100.00
81352;BME280;70809;52.184;13.422;2024-01-16T00:40:02;99714.44;;;-0.91;100.00
81352;BME280;70809;52.184;13.422;2024-01-16T00:41:04;99732.31;;;-1.16;100.00
81352;BME280;70809;52.184;13.422;2024-01-16T00:42:05;99717.53;;;-1.19;100.00
81352;BME280;70809;52.184;13.422;2024-01-16T00:43:07;99718.69;;;-1.12;100.00
81352;BME280;70809;52.184;13.422;2024-01-16T00:44:10;99711.75;;;-1.13;100.00
81352;BME280;70809;52.184;13.422;2024-01-16T00:45:12;99713.03;;;-1.23;100.00
81352;BME280;70809;52.184;13.422;2024-01-16T00:46:14;99715.97;;;-1.15;100.00
81352;BME280;70809;52.184;13.422;2024-01-16T00:47:15;99714.97;;;-0.98;100.00
81352;BME280;70809;52.184;13.422;2024-01-16T00:48:17;99716.84;;;-0.95;100.00
81352;BME280;70809;52.184;13.422;2024-01-16T00:49:19;99712.38;;;-0.98;100.00
81352;BME280;70809;52.184;13.422;2024-01-16T00:50:22;99716.94;;;-1.13;100.00
81352;BME280;70809;52.184;13.422;2024-01-16T00:51:24;99714.66;;;-1.05;100.00
81352;BME280;70809;52.184;13.422;2024-01-16T00:52:26;99719.28;;;-0.98;100.00
81352;BME280;70809;52.184;13.422;2024-01-16T00:53:29;99713.97;;;-1.01;100.00
81352;BME280;70809;52.184;13.422;2024-01-16T00:54:30;99721.28;;;-1.12;100.00
81352;BME280;70809;52.184;13.422;2024-01-16T00:55:32;99726.47;;;-1.12;100.00
81352;BME280;70809;52.184;13.422;2024-01-16T00:56:34;99724.91;;;-1.09;100.00
81352;BME280;70809;52.184;13.422;2024-01-16T00:57:36;99724.28;;;-1.03;100.00
81352;BME280;70809;52.184;13.422;2024-01-16T00:58:38;99721.75;;;-1.01;100.00
81352;BME280;70809;52.184;13.422;2024-01-16T00:59:39;99728.09;;;-0.95;100.00
81352;BME280;70809;52.184;13.422;2024-01-16T01:00:41;99724.19;;;-0.64;100.00
81352;BME280;70809;52.184;13.422;2024-01-16T01:01:42;99720.28;;;-0.55;100.00
81352;BME280;70809;52.184;13.422;2024-01-16T01:02:44;99720.13;;;-0.58;100.00
81352;BME280;70809;52.184;13.422;2024-01-16T01:03:46;99717.53;;;-0.58;100.00
81352;BME280;70809;52.184;13.422;2024-01-16T01:04:47;99724.91;;;-0.68;100.00
81352;BME280;70809;52.184;13.422;2024-01-16T01:05:49;99729.88;;;-0.73;100.00
81352;BME280;70809;52.184;13.422;2024-01-16T01:06:51;99716.22;;;-0.69;100.00
81352;BME280;70809;52.184;13.422;2024-01-16T01:07:52;99724.69;;;-0.73;100.00
81352;BME280;70809;52.184;13.422;2024-01-16T01:08:55;99722.78;;;-0.77;100.00
81352;BME280;70809;52.184;13.422;2024-01-16T01:09:57;99718.53;;;-0.75;100.00
81352;BME280;70809;52.184;13.422;2024-01-16T01:10:58;99721.41;;;-0.69;100.00
81352;BME280;70809;52.184;13.422;2024-01-16T01:12:00;99719.56;;;-0.71;100.00
81352;BME280;70809;52.184;13.422;2024-01-16T01:13:01;99725.53;;;-0.74;100.00
81352;BME280;70809;52.184;13.422;2024-01-16T01:14:03;99734.44;;;-0.67;100.00
81352;BME280;70809;52.184;13.422;2024-01-16T01:15:06;99726.59;;;-0.69;100.00
81352;BME280;70809;52.184;13.422;2024-01-16T01:16:08;99720.34;;;-0.74;100.00
81352;BME280;70809;52.184;13.422;2024-01-16T01:17:09;99737.31;;;-0.81;100.00
81352;BME280;70809;52.184;13.422;2024-01-16T01:18:11;99732.06;;;-0.82;100.00
81352;BME280;70809;52.184;13.422;2024-01-16T01:19:13;99736.31;;;-0.84;100.00
81352;BME280;70809;52.184;13.422;2024-01-16T01:20:15;99727.34;;;-0.71;100.00
81352;BME280;70809;52.184;13.422;2024-01-16T01:21:16;99732.16;;;-0.60;100.00
81352;BME280;70809;52.184;13.422;2024-01-16T01:22:18;99734.28;;;-0.70;100.00
81352;BME280;70809;52.184;13.422;2024-01-16T01:23:20;99723.63;;;-0.78;100.00
81352;BME280;70809;52.184;13.422;2024-01-16T01:24:23;99732.97;;;-0.82;100.00
81352;BME280;70809;52.184;13.422;2024-01-16T01:25:24;99728.19;;;-0.72;100.00
81352;BME280;70809;52.184;13.422;2024-01-16T01:26:26;99725.84;;;-0.66;100.00
81352;BME280;70809;52.184;13.422;2024-01-16T01:27:27;99726.31;;;-0.75;100.00
81352;BME280;70809;52.184;13.422;2024-01-16T01:28:29;99733.94;;;-0.79;100.00
81352;BME280;70809;52.184;13.422;2024-01-16T01:29:31;99730.63;;;-0.75;100.00
81352;BME280;70809;52.184;13.422;2024-01-16T01:30:32;99736.31;;;-0.63;100.00
81352;BME280;70809;52.184;13.422;2024-01-16T01:31:34;99738.81;;;-0.66;100.00
81352;BME280;70809;52.184;13.422;2024-01-16T01:32:36;99736.78;;;-0.73;100.00
81352;BME280;70809;52.184;13.422;2024-01-16T01:33:38;99734.88;;;-0.77;100.00
81352;BME280;70809;52.184;13.422;2024-01-16T01:34:41;99736.78;;;-0.73;100.00
81352;BME280;70809;52.184;13.422;2024-01-16T01:35:42;99734.94;;;-0.76;100.00
81352;BME280;70809;52.184;13.422;2024-01-16T01:36:44;99735.69;;;-0.78;100.00
81352;BME280;70809;52.184;13.422;2024-01-16T01:37:46;99740.31;;;-0.71;100.00
81352;BME280;70809;52.184;13.422;2024-01-16T01:38:47;99738.50;;;-0.74;100.00
81352;BME280;70809;52.184;13.422;2024-01-16T01:39:50;99747.34;;;-0.69;100.00
81352;BME280;70809;52.184;13.422;2024-01-16T01:40:52;99747.88;;;-0.76;100.00
81352;BME280;70809;52.184;13.422;2024-01-16T01:41:54;99746.56;;;-0.66;100.00
81352;BME280;70809;52.184;13.422;2024-01-16T01:42:56;99733.31;;;-0.74;100.00
81352;BME280;70809;52.184;13.422;2024-01-16T01:44:00;99739.09;;;-0.59;100.00
81352;BME280;70809;52.184;13.422;2024-01-16T01:45:02;99751.34;;;-0.56;100.00
81352;BME280;70809;52.184;13.422;2024-01-16T01:46:09;99745.81;;;-0.64;100.00
81352;BME280;70809;52.184;13.422;2024-01-16T01:47:11;99759.34;;;-0.71;100.00
81352;BME280;70809;52.184;13.422;2024-01-16T01:48:13;99727.75;;;-0.62;100.00
81352;BME280;70809;52.184;13.422;2024-01-16T01:49:15;99746.69;;;-0.63;100.00
81352;BME280;70809;52.184;13.422;2024-01-16T01:50:17;99745.75;;;-0.65;100.00
81352;BME280;70809;52.184;13.422;2024-01-16T01:51:19;99744.88;;;-0.66;100.00
81352;BME280;70809;52.184;13.422;2024-01-16T01:52:21;99743.22;;;-0.64;100.00
81352;BME280;70809;52.184;13.422;2024-01-16T01:53:23;99753.84;;;-0.58;100.00
81352;BME280;70809;52.184;13.422;2024-01-16T01:54:25;99745.00;;;-0.63;100.00
81352;BME280;70809;52.184;13.422;2024-01-16T01:55:29;99755.19;;;-0.67;100.00
81352;BME280;70809;52.184;13.422;2024-01-16T01:56:30;99759.84;;;-0.59;100.00
81352;BME280;70809;52.184;13.422;2024-01-16T01:57:33;99760.88;;;-0.55;99.73
81352;BME280;70809;52.184;13.422;2024-01-16T01:58:36;99759.03;;;-0.58;98.98
81352;BME280;70809;52.184;13.422;2024-01-16T01:59:37;99760.88;;;-0.55;99.48
81352;BME280;70809;52.184;13.422;2024-01-16T02:00:39;99763.47;;;-0.55;99.36
81352;BME280;70809;52.184;13.422;2024-01-16T02:01:42;99760.69;;;-0.60;99.59
81352;BME280;70809;52.184;13.422;2024-01-16T02:02:43;99765.81;;;-0.61;100.00
81352;BME280;70809;52.184;13.422;2024-01-16T02:03:46;99769.34;;;-0.59;100.00
81352;BME280;70809;52.184;13.422;2024-01-16T02:04:48;99764.31;;;-0.56;100.00
81352;BME280;70809;52.184;13.422;2024-01-16T02:05:50;99772.00;;;-0.58;100.00
81352;BME280;70809;52.184;13.422;2024-01-16T02:06:53;99772.09;;;-0.56;100.00
81352;BME280;70809;52.184;13.422;2024-01-16T02:07:55;99766.66;;;-0.62;100.00
81352;BME280;70809;52.184;13.422;2024-01-16T02:08:57;99771.56;;;-0.68;100.00
81352;BME280;70809;52.184;13.422;2024-01-16T02:09:59;99774.16;;;-0.68;100.00
81352;BME280;70809;52.184;13.422;2024-01-16T02:11:02;99770.81;;;-0.66;100.00
81352;BME280;70809;52.184;13.422;2024-01-16T02:12:05;99767.19;;;-0.69;100.00
81352;BME280;70809;52.184;13.422;2024-01-16T02:13:07;99777.28;;;-0.75;100.00
81352;BME280;70809;52.184;13.422;2024-01-16T02:14:09;99782.38;;;-0.78;100.00
81352;BME280;70809;52.184;13.422;2024-01-16T02:15:11;99796.88;;;-0.82;100.00
81352;BME280;70809;52.184;13.422;2024-01-16T02:16:19;99802.91;;;-0.83;100.00
81352;BME280;70809;52.184;13.422;2024-01-16T02:17:21;99811.56;;;-0.83;100.00
81352;BME280;70809;52.184;13.422;2024-01-16T02:18:22;99821.25;;;-0.78;100.00
81352;BME280;70809;52.184;13.422;2024-01-16T02:19:24;99816.38;;;-0.71;100.00
81352;BME280;70809;52.184;13.422;2024-01-16T02:20:26;99812.28;;;-0.66;100.00
81352;BME280;70809;52.184;13.422;2024-01-16T02:21:28;99818.78;;;-0.75;100.00
81352;BME280;70809;52.184;13.422;2024-01-16T02:22:31;99821.66;;;-0.89;100.00
81352;BME280;70809;52.184;13.422;2024-01-16T02:23:34;99826.56;;;-0.95;100.00
81352;BME280;70809;52.184;13.422;2024-01-16T02:24:36;99831.00;;;-0.92;100.00
81352;BME280;70809;52.184;13.422;2024-01-16T02:25:38;99832.78;;;-0.91;100.00
81352;BME280;70809;52.184;13.422;2024-01-16T02:26:40;99823.38;;;-0.89;100.00
81352;BME280;70809;52.184;13.422;2024-01-16T02:27:42;99839.69;;;-0.92;100.00
81352;BME280;70809;52.184;13.422;2024-01-16T02:28:43;99842.47;;;-1.07;100.00
81352;BME280;70809;52.184;13.422;2024-01-16T02:29:45;99854.00;;;-1.00;100.00
81352;BME280;70809;52.184;13.422;2024-01-16T02:30:47;99856.75;;;-0.97;100.00
81352;BME280;70809;52.184;13.422;2024-01-16T02:31:48;99862.72;;;-0.98;99.88
81352;BME280;70809;52.184;13.422;2024-01-16T02:32:50;99864.09;;;-1.06;99.83
81352;BME280;70809;52.184;13.422;2024-01-16T02:33:51;99871.34;;;-1.17;100.00
81352;BME280;70809;52.184;13.422;2024-01-16T02:34:53;99876.75;;;-1.12;99.38
81352;BME280;70809;52.184;13.422;2024-01-16T02:35:55;99868.09;;;-1.13;99.71
81352;BME280;70809;52.184;13.422;2024-01-16T02:36:56;99881.28;;;-1.08;100.00
81352;BME280;70809;52.184;13.422;2024-01-16T02:37:58;99875.88;;;-1.13;100.00
81352;BME280;70809;52.184;13.422;2024-01-16T02:39:01;99887.56;;;-1.58;100.00
81352;BME280;70809;52.184;13.422;2024-01-16T02:40:02;99892.16;;;-1.88;100.00
81352;BME280;70809;52.184;13.422;2024-01-16T02:41:04;99890.38;;;-1.89;100.00
81352;BME280;70809;52.184;13.422;2024-01-16T02:42:06;99898.97;;;-1.54;100.00
81352;BME280;70809;52.184;13.422;2024-01-16T02:43:08;99886.94;;;-1.35;100.00
81352;BME280;70809;52.184;13.422;2024-01-16T02:44:09;99886.69;;;-1.21;100.00
81352;BME280;70809;52.184;13.422;2024-01-16T02:45:11;99890.97;;;-1.22;100.00
81352;BME280;70809;52.184;13.422;2024-01-16T02:46:13;99884.28;;;-1.36;99.08
81352;BME280;70809;52.184;13.422;2024-01-16T02:47:14;99903.25;;;-1.37;98.07
81352;BME280;70809;52.184;13.422;2024-01-16T02:48:16;99899.53;;;-1.42;98.01
81352;BME280;70809;52.184;13.422;2024-01-16T02:49:18;99901.53;;;-1.37;98.56
81352;BME280;70809;52.184;13.422;2024-01-16T02:50:19;99905.59;;;-1.24;98.27
81352;BME280;70809;52.184;13.422;2024-01-16T02:51:21;99908.13;;;-1.25;97.14
81352;BME280;70809;52.184;13.422;2024-01-16T02:52:23;99909.72;;;-1.27;97.27
81352;BME280;70809;52.184;13.422;2024-01-16T02:53:24;99904.25;;;-1.34;95.85
81352;BME280;70809;52.184;13.422;2024-01-16T02:54:27;99911.81;;;-1.38;96.05
81352;BME280;70809;52.184;13.422;2024-01-16T02:55:29;99910.03;;;-1.39;95.38
81352;BME280;70809;52.184;13.422;2024-01-16T02:56:30;99908.84;;;-1.46;96.03
81352;BME280;70809;52.184;13.422;2024-01-16T02:57:32;99922.25;;;-1.37;96.66
81352;BME280;70809;52.184;13.422;2024-01-16T02:58:33;99918.47;;;-1.25;95.62
81352;BME280;70809;52.184;13.422;2024-01-16T02:59:35;99923.06;;;-1.20;95.53
81352;BME280;70809;52.184;13.422;2024-01-16T03:00:37;99920.88;;;-1.11;96.11
81352;BME280;70809;52.184;13.422;2024-01-16T03:01:39;99920.56;;;-0.99;95.92
81352;BME280;70809;52.184;13.422;2024-01-16T03:02:40;99928.44;;;-0.97;94.92
81352;BME280;70809;52.184;13.422;2024-01-16T03:03:42;99925.97;;;-0.94;95.79
81352;BME280;70809;52.184;13.422;2024-01-16T03:04:44;99928.72;;;-0.91;94.65
81352;BME280;70809;52.184;13.422;2024-01-16T03:05:45;99934.22;;;-0.84;94.83
81352;BME280;70809;52.184;13.422;2024-01-16T03:06:47;99935.41;;;-0.77;94.62
81352;BME280;70809;52.184;13.422;2024-01-16T03:07:49;99937.16;;;-0.76;94.76
81352;BME280;70809;52.184;13.422;2024-01-16T03:08:51;99941.63;;;-0.73;93.87
81352;BME280;70809;52.184;13.422;2024-01-16T03:09:54;99949.63;;;-0.69;94.42
81352;BME280;70809;52.184;13.422;2024-01-16T03:10:55;99950.63;;;-0.65;94.10
81352;BME280;70809;52.184;13.422;2024-01-16T03:11:57;99948.31;;;-0.59;94.16
81352;BME280;70809;52.184;13.422;2024-01-16T03:12:59;99946.69;;;-0.57;93.56
81352;BME280;70809;52.184;13.422;2024-01-16T03:14:00;99938.09;;;-0.56;92.58
81352;BME280;70809;52.184;13.422;2024-01-16T03:15:02;99947.34;;;-0.61;92.42
81352;BME280;70809;52.184;13.422;2024-01-16T03:16:06;99944.56;;;-0.66;91.85
81352;BME280;70809;52.184;13.422;2024-01-16T03:17:08;99949.63;;;-0.69;91.88
81352;BME280;70809;52.184;13.422;2024-01-16T03:18:09;99953.88;;;-0.69;92.55
81352;BME280;70809;52.184;13.422;2024-01-16T03:19:12;99940.25;;;-0.65;92.43
81352;BME280;70809;52.184;13.422;2024-01-16T03:20:14;99946.75;;;-0.56;92.81
81352;BME280;70809;52.184;13.422;2024-01-16T03:21:15;99949.88;;;-0.43;92.89
81352;BME280;70809;52.184;13.422;2024-01-16T03:22:17;99945.13;;;-0.34;92.83
81352;BME280;70809;52.184;13.422;2024-01-16T03:23:19;99939.22;;;-0.30;92.51
81352;BME280;70809;52.184;13.422;2024-01-16T03:24:20;99943.06;;;-0.22;92.90
81352;BME280;70809;52.184;13.422;2024-01-16T03:25:23;99949.25;;;-0.18;92.81
81352;BME280;70809;52.184;13.422;2024-01-16T03:26:25;99952.59;;;-0.40;90.96
81352;BME280;70809;52.184;13.422;2024-01-16T03:27:26;99956.34;;;-1.27;91.60
81352;BME280;70809;52.184;13.422;2024-01-16T03:28:28;99964.94;;;-1.64;93.29
81352;BME280;70809;52.184;13.422;2024-01-16T03:29:30;99953.78;;;-1.97;95.50
81352;BME280;70809;52.184;13.422;2024-01-16T03:30:31;99963.59;;;-2.24;97.44
81352;BME280;70809;52.184;13.422;2024-01-16T03:31:33;99968.25;;;-2.35;98.34
81352;BME280;70809;52.184;13.422;2024-01-16T03:32:34;99970.16;;;-2.31;98.54
81352;BME280;70809;52.184;13.422;2024-01-16T03:33:36;99971.03;;;-2.14;98.78
81352;BME280;70809;52.184;13.422;2024-01-16T03:34:38;99976.06;;;-2.17;98.44
81352;BME280;70809;52.184;13.422;2024-01-16T03:35:39;99974.63;;;-2.12;98.93
81352;BME280;70809;52.184;13.422;2024-01-16T03:36:41;99975.69;;;-1.91;98.23
81352;BME280;70809;52.184;13.422;2024-01-16T03:37:43;99970.63;;;-2.05;98.07
81352;BME280;70809;52.184;13.422;2024-01-16T03:38:44;99976.53;;;-2.08;98.83
81352;BME280;70809;52.184;13.422;2024-01-16T03:39:46;99983.81;;;-2.17;97.97
81352;BME280;70809;52.184;13.422;2024-01-16T03:40:49;99982.53;;;-2.25;98.63
81352;BME280;70809;52.184;13.422;2024-01-16T03:41:50;99988.59;;;-2.41;99.33
81352;BME280;70809;52.184;13.422;2024-01-16T03:42:52;99988.69;;;-2.56;100.00
81352;BME280;70809;52.184;13.422;2024-01-16T03:43:53;99997.06;;;-2.60;100.00
81352;BME280;70809;52.184;13.422;2024-01-16T03:44:55;99994.81;;;-2.54;100.00
81352;BME280;70809;52.184;13.422;2024-01-16T03:45:57;99989.25;;;-2.45;100.00
81352;BME280;70809;52.184;13.422;2024-01-16T03:46:58;99994.72;;;-2.55;100.00
81352;BME280;70809;52.184;13.422;2024-01-16T03:48:00;99994.88;;;-2.36;100.00
81352;BME280;70809;52.184;13.422;2024-01-16T03:49:02;99980.44;;;-2.32;99.30
81352;BME280;70809;52.184;13.422;2024-01-16T03:50:04;99989.72;;;-2.20;99.31
81352;BME280;70809;52.184;13.422;2024-01-16T03:51:06;99984.16;;;-2.11;99.57
81352;BME280;70809;52.184;13.422;2024-01-16T03:52:08;99997.41;;;-2.05;98.65
81352;BME280;70809;52.184;13.422;2024-01-16T03:53:10;99984.22;;;-1.75;98.70
81352;BME280;70809;52.184;13.422;2024-01-16T03:54:12;99994.66;;;-1.74;98.10
81352;BME280;70809;52.184;13.422;2024-01-16T03:55:13;99990.72;;;-1.83;96.96
81352;BME280;70809;52.184;13.422;2024-01-16T03:56:16;99983.69;;;-1.86;97.26
81352;BME280;70809;52.184;13.422;2024-01-16T03:57:18;99993.81;;;-2.07;96.80
81352;BME280;70809;52.184;13.422;2024-01-16T03:58:20;99988.91;;;-2.19;97.30
81352;BME280;70809;52.184;13.422;2024-01-16T03:59:21;99996.91;;;-2.30;98.35
81352;BME280;70809;52.184;13.422;2024-01-16T04:00:24;99989.00;;;-2.33;98.89
81352;BME280;70809;52.184;13.422;2024-01-16T04:01:31;99988.06;;;-2.01;98.41
81352;BME280;70809;52.184;13.422;2024-01-16T04:02:33;99994.53;;;-1.93;97.61
81352;BME280;70809;52.184;13.422;2024-01-16T04:03:35;99998.97;;;-1.91;97.51
81352;BME280;70809;52.184;13.422;2024-01-16T04:04:36;99997.75;;;-1.81;97.84
81352;BME280;70809;52.184;13.422;2024-01-16T04:05:38;99999.75;;;-1.75;96.78
81352;BME280;70809;52.184;13.422;2024-01-16T04:06:39;100002.03;;;-1.81;96.52
81352;BME280;70809;52.184;13.422;2024-01-16T04:07:41;100001.25;;;-1.63;96.57
81352;BME280;70809;52.184;13.422;2024-01-16T04:08:42;100001.50;;;-1.58;95.72
81352;BME280;70809;52.184;13.422;2024-01-16T04:09:44;100010.38;;;-1.53;95.38
81352;BME280;70809;52.184;13.422;2024-01-16T04:10:46;100002.13;;;-1.96;95.73
81352;BME280;70809;52.184;13.422;2024-01-16T04:11:51;100014.63;;;-2.22;96.95
81352;BME280;70809;52.184;13.422;2024-01-16T04:12:52;100012.44;;;-2.14;97.49
81352;BME280;70809;52.184;13.422;2024-01-16T04:13:54;100019.69;;;-1.91;97.59
81352;BME280;70809;52.184;13.422;2024-01-16T04:14:55;100013.31;;;-2.14;96.90
81352;BME280;70809;52.184;13.422;2024-01-16T04:15:57;100014.63;;;-2.22;98.08
81352;BME280;70809;52.184;13.422;2024-01-16T04:16:59;100019.31;;;-2.31;98.61
81352;BME280;70809;52.184;13.422;2024-01-16T04:18:00;100020.19;;;-2.30;99.07
81352;BME280;70809;52.184;13.422;2024-01-16T04:19:02;100014.22;;;-2.29;98.72
81352;BME280;70809;52.184;13.422;2024-01-16T04:20:05;100011.84;;;-2.08;99.33
81352;BME280;70809;52.184;13.422;2024-01-16T04:21:06;100008.34;;;-1.76;98.50
81352;BME280;70809;52.184;13.422;2024-01-16T04:22:08;100014.50;;;-1.56;97.06
81352;BME280;70809;52.184;13.422;2024-01-16T04:23:09;100012.31;;;-1.49;96.47
81352;BME280;70809;52.184;13.422;2024-01-16T04:24:11;100014.22;;;-1.79;96.10
81352;BME280;70809;52.184;13.422;2024-01-16T04:25:13;100013.19;;;-1.66;96.30
81352;BME280;70809;52.184;13.422;2024-01-16T04:26:14;100000.31;;;-1.47;95.83
81352;BME280;70809;52.184;13.422;2024-01-16T04:27:17;100007.16;;;-1.49;95.00
81352;BME280;70809;52.184;13.422;2024-01-16T04:28:19;100015.38;;;-1.56;94.94
81352;BME280;70809;52.184;13.422;2024-01-16T04:29:20;100013.28;;;-1.47;95.34
81352;BME280;70809;52.184;13.422;2024-01-16T04:30:22;100012.16;;;-1.34;95.00
81352;BME280;70809;52.184;13.422;2024-01-16T04:31:24;100016.94;;;-1.25;94.27
81352;BME280;70809;52.184;13.422;2024-01-16T04:32:25;100014.63;;;-1.19;94.02
81352;BME280;70809;52.184;13.422;2024-01-16T04:33:27;100017.44;;;-1.15;93.53
81352;BME280;70809;52.184;13.422;2024-01-16T04:34:29;100026.53;;;-1.23;92.65
81352;BME280;70809;52.184;13.422;2024-01-16T04:35:31;100032.47;;;-1.25;92.45
81352;BME280;70809;52.184;13.422;2024-01-16T04:36:32;100021.34;;;-1.23;92.53
81352;BME280;70809;52.184;13.422;2024-01-16T04:37:34;100031.13;;;-1.17;92.27
81352;BME280;70809;52.184;13.422;2024-01-16T04:38:35;100026.25;;;-1.11;92.18
81352;BME280;70809;52.184;13.422;2024-01-16T04:39:37;100027.28;;;-1.08;91.96
81352;BME280;70809;52.184;13.422;2024-01-16T04:40:39;100024.94;;;-1.03;91.44
81352;BME280;70809;52.184;13.422;2024-01-16T04:41:40;100036.97;;;-1.03;90.57
81352;BME280;70809;52.184;13.422;2024-01-16T04:42:43;100025.34;;;-1.12;90.26
81352;BME280;70809;52.184;13.422;2024-01-16T04:43:45;100034.09;;;-1.10;90.59
81352;BME280;70809;52.184;13.422;2024-01-16T04:44:46;100038.69;;;-1.04;90.66
81352;BME280;70809;52.184;13.422;2024-01-16T04:45:48;100030.25;;;-1.00;90.35
81352;BME280;70809;52.184;13.422;2024-01-16T04:46:50;100038.97;;;-0.98;89.78
81352;BME280;70809;52.184;13.422;2024-01-16T04:47:51;100031.94;;;-1.00;89.57
81352;BME280;70809;52.184;13.422;2024-01-16T04:48:53;100034.53;;;-1.00;89.56
81352;BME280;70809;52.184;13.422;2024-01-16T04:49:55;100038.78;;;-1.02;89.06
81352;BME280;70809;52.184;13.422;2024-01-16T04:50:58;100038.78;;;-1.02;88.64
81352;BME280;70809;52.184;13.422;2024-01-16T04:51:59;100032.78;;;-1.01;88.93
81352;BME280;70809;52.184;13.422;2024-01-16T04:53:01;100026.69;;;-1.02;89.04
81352;BME280;70809;52.184;13.422;2024-01-16T04:54:03;100030.25;;;-1.00;88.56
81352;BME280;70809;52.184;13.422;2024-01-16T04:55:05;100036.38;;;-0.98;88.64
81352;BME280;70809;52.184;13.422;2024-01-16T04:56:07;100040.91;;;-1.12;87.28
81352;BME280;70809;52.184;13.422;2024-01-16T04:57:09;100038.81;;;-1.54;87.78
81352;BME280;70809;52.184;13.422;2024-01-16T04:58:12;100040.47;;;-1.55;88.28
81352;BME280;70809;52.184;13.422;2024-01-16T04:59:13;100037.47;;;-1.46;88.83
81352;BME280;70809;52.184;13.422;2024-01-16T05:00:17;100036.22;;;-1.37;89.20
81352;BME280;70809;52.184;13.422;2024-01-16T05:01:19;100040.59;;;-1.36;88.58
81352;BME280;70809;52.184;13.422;2024-01-16T05:02:20;100040.56;;;-1.53;88.53
81352;BME280;70809;52.184;13.422;2024-01-16T05:03:22;100048.03;;;-1.59;89.27
81352;BME280;70809;52.184;13.422;2024-01-16T05:04:24;100038.13;;;-1.50;89.24
81352;BME280;70809;52.184;13.422;2024-01-16T05:05:25;100038.59;;;-1.41;89.75
81352;BME280;70809;52.184;13.422;2024-01-16T05:06:30;100042.53;;;-1.31;89.65
81352;BME280;70809;52.184;13.422;2024-01-16T05:07:32;100034.25;;;-1.24;89.30
81352;BME280;70809;52.184;13.422;2024-01-16T05:08:34;100043.13;;;-1.19;89.38
81352;BME280;70809;52.184;13.422;2024-01-16T05:09:35;100038.91;;;-1.17;88.80
81352;BME280;70809;52.184;13.422;2024-01-16T05:10:37;100031.00;;;-1.20;88.63
81352;BME280;70809;52.184;13.422;2024-01-16T05:11:38;100041.13;;;-1.25;87.79
81352;BME280;70809;52.184;13.422;2024-01-16T05:12:40;100046.16;;;-1.28;88.09
81352;BME280;70809;52.184;13.422;2024-01-16T05:13:43;100047.84;;;-1.28;88.19
81352;BME280;70809;52.184;13.422;2024-01-16T05:14:45;100047.19;;;-1.24;88.52
81352;BME280;70809;52.184;13.422;2024-01-16T05:15:47;100052.38;;;-1.24;88.14
81352;BME280;70809;52.184;13.422;2024-01-16T05:16:48;100053.34;;;-1.22;88.49
81352;BME280;70809;52.184;13.422;2024-01-16T05:17:50;100047.44;;;-1.20;88.08
81352;BME280;70809;52.184;13.422;2024-01-16T05:18:52;100054.16;;;-1.23;87.52
81352;BME280;70809;52.184;13.422;2024-01-16T05:19:53;100045.91;;;-1.33;87.09
81352;BME280;70809;52.184;13.422;2024-01-16T05:20:55;100046.72;;;-1.34;87.59